| time (UTC) | temp F | wind direction | speed knots | gust knots | rain 1hr in | rain 24hr in | rain mn in | humidity % | barometer mb |
| 20260505173309 | 72 | 225 | 1.7 | 7.8 | 0.00 | 0.00 | 0.00 | 44 | 1010.0 |
| 20260505172809 | 72 | 203 | 0.9 | 7.0 | 0.00 | 0.00 | 0.00 | 45 | 1010.0 |
| 20260505172309 | 73 | 180 | 1.7 | 7.0 | 0.00 | 0.00 | 0.00 | 44 | 1010.0 |
| 20260505171809 | 73 | 180 | 1.7 | 7.0 | 0.00 | 0.00 | 0.00 | 45 | 1010.0 |
| 20260505171309 | 73 | 248 | 0.9 | 7.0 | 0.00 | 0.00 | 0.00 | 45 | 1010.0 |
| 20260505170810 | 73 | 180 | 1.7 | 7.0 | 0.00 | 0.00 | 0.00 | 45 | 1010.0 |
| 20260505170309 | 73 | 180 | 0.9 | 7.0 | 0.00 | 0.00 | 0.00 | 45 | 1010.0 |
| 20260505165808 | 73 | 315 | 0.9 | 7.0 | 0.00 | 0.00 | 0.00 | 45 | 1010.0 |
| 20260505165309 | 73 | 180 | 1.7 | 7.0 | 0.00 | 0.00 | 0.00 | 46 | 1010.0 |
| 20260505164809 | 72 | 225 | 1.7 | 7.0 | 0.00 | 0.00 | 0.00 | 48 | 1010.0 |
| 20260505164308 | 71 | 248 | 1.7 | 6.1 | 0.00 | 0.00 | 0.00 | 49 | 1009.7 |
| 20260505163810 | 71 | 225 | 0.9 | 5.2 | 0.00 | 0.00 | 0.00 | 49 | 1010.0 |
| 20260505163540 | 71 | 180 | 1.7 | 6.1 | 0.00 | 0.00 | 0.00 | 49 | 1010.0 |
| 20260505162809 | 71 | 180 | 0.9 | 6.1 | 0.00 | 0.00 | 0.00 | 49 | 1010.5 |
| 20260505162540 | 71 | 180 | 0.9 | 6.1 | 0.00 | 0.00 | 0.00 | 49 | 1010.0 |
| 20260505161809 | 71 | 203 | 1.7 | 7.0 | 0.00 | 0.00 | 0.00 | 50 | 1010.5 |
| 20260505161539 | 70 | 158 | 1.7 | 7.0 | 0.00 | 0.00 | 0.00 | 50 | 1010.5 |
| 20260505160808 | 70 | 180 | 1.7 | 6.1 | 0.00 | 0.00 | 0.00 | 50 | 1010.0 |
| 20260505160538 | 70 | 158 | 1.7 | 7.0 | 0.00 | 0.00 | 0.00 | 50 | 1010.5 |
| 20260505153309 | 70 | 203 | 0.9 | 4.3 | 0.00 | 0.00 | 0.00 | 51 | 1010.5 |
| 20260505152809 | 70 | 158 | 0.9 | 4.3 | 0.00 | 0.00 | 0.00 | 53 | 1010.0 |
| 20260505152307 | 69 | 180 | 0.9 | 5.2 | 0.00 | 0.00 | 0.00 | 53 | 1010.0 |
| 20260505151807 | 69 | 180 | 0.9 | 5.2 | 0.00 | 0.00 | 0.00 | 53 | 1010.0 |
| 20260505151307 | 69 | 225 | 0.9 | 5.2 | 0.00 | 0.00 | 0.00 | 54 | 1010.0 |
| 20260505150807 | 69 | 180 | 0.9 | 6.1 | 0.00 | 0.00 | 0.00 | 54 | 1010.0 |
| 20260505150308 | 69 | 180 | 1.7 | 6.1 | 0.00 | 0.00 | 0.00 | 55 | 1010.0 |
| 20260505140308 | 68 | 180 | 1.7 | 5.2 | 0.00 | 0.00 | 0.00 | 61 | 1010.0 |
| 20260505130307 | 67 | 135 | 0.9 | 5.2 | 0.00 | 0.00 | 0.00 | 58 | 1009.7 |
| 20260505124807 | 67 | 90 | 0.0 | 1.7 | 0.00 | 0.00 | 0.00 | 60 | 1009.3 |
| 20260505124308 | 67 | 203 | 0.0 | 1.7 | 0.00 | 0.00 | 0.00 | 59 | 1009.3 |
| 20260505123807 | 67 | 135 | 0.0 | 2.6 | 0.00 | 0.00 | 0.00 | 59 | 1009.7 |
| 20260505123307 | 67 | 203 | 0.9 | 2.6 | 0.00 | 0.00 | 0.00 | 59 | 1009.3 |
| 20260505122807 | 67 | 158 | 0.0 | 2.6 | 0.00 | 0.00 | 0.00 | 59 | 1009.3 |
| 20260505122306 | 67 | 248 | 0.0 | 1.7 | 0.00 | 0.00 | 0.00 | 60 | 1009.3 |
| 20260505121805 | 66 | 225 | 0.0 | 2.6 | 0.00 | 0.00 | 0.00 | 60 | 1009.0 |
| 20260505121306 | 67 | 68 | 0.0 | 2.6 | 0.00 | 0.00 | 0.00 | 60 | 1009.3 |
| 20260505120806 | 67 | 225 | 0.0 | 0.0 | 0.00 | 0.00 | 0.00 | 60 | 1009.0 |
| 20260505120307 | 67 | 270 | 0.0 | 0.0 | 0.00 | 0.00 | 0.00 | 60 | 1009.0 |
| 20260505115807 | 67 | 315 | 0.0 | 0.0 | 0.00 | 0.00 | 0.00 | 59 | 1009.3 |
| 20260505115307 | 67 | 45 | 0.0 | 0.0 | 0.00 | 0.00 | 0.00 | 59 | 1009.3 |
| 20260505114807 | 67 | 315 | 0.0 | 0.9 | 0.00 | 0.00 | 0.00 | 58 | 1009.3 |
| 20260505114307 | 67 | 315 | 0.0 | 2.6 | 0.00 | 0.00 | 0.00 | 56 | 1009.0 |
| 20260505113805 | 67 | 203 | 0.0 | 2.6 | 0.00 | 0.00 | 0.00 | 55 | 1009.0 |
| 20260505113306 | 67 | 45 | 0.0 | 0.9 | 0.00 | 0.00 | 0.00 | 55 | 1009.0 |
| 20260505112806 | 67 | 90 | 0.0 | 2.6 | 0.00 | 0.00 | 0.00 | 55 | 1009.3 |
| 20260505112306 | 67 | 135 | 0.0 | 3.5 | 0.00 | 0.00 | 0.00 | 55 | 1009.0 |
| 20260505111807 | 68 | 158 | 0.9 | 3.5 | 0.00 | 0.00 | 0.00 | 55 | 1009.0 |
| 20260505111538 | 68 | 180 | 0.9 | 4.3 | 0.00 | 0.00 | 0.00 | 55 | 1009.0 |
| 20260505110807 | 68 | 158 | 0.9 | 4.3 | 0.00 | 0.00 | 0.00 | 55 | 1009.0 |
| 20260505110539 | 68 | 90 | 0.9 | 4.3 | 0.00 | 0.00 | 0.00 | 55 | 1009.0 |
| 20260505101806 | 67 | 180 | 1.7 | 7.8 | 0.00 | 0.00 | 0.00 | 55 | 1009.7 |
| 20260505101307 | 67 | 203 | 1.7 | 8.7 | 0.00 | 0.00 | 0.00 | 55 | 1009.7 |
| 20260505100806 | 67 | 225 | 1.7 | 8.7 | 0.00 | 0.00 | 0.00 | 55 | 1009.7 |
| 20260505100305 | 67 | 180 | 1.7 | 7.8 | 0.00 | 0.00 | 0.00 | 54 | 1010.0 |
| 20260505100036 | 67 | 158 | 1.7 | 7.8 | 0.00 | 0.00 | 0.00 | 54 | 1010.0 |
| 20260505095305 | 67 | 248 | 1.7 | 7.8 | 0.00 | 0.00 | 0.00 | 54 | 1010.0 |
| 20260505094806 | 67 | 158 | 1.7 | 7.8 | 0.00 | 0.00 | 0.00 | 54 | 1010.0 |
| 20260505094306 | 67 | 180 | 0.9 | 7.0 | 0.00 | 0.00 | 0.00 | 54 | 1010.5 |
| 20260505093806 | 67 | 135 | 0.9 | 6.1 | 0.00 | 0.00 | 0.00 | 54 | 1010.0 |
| 20260505093306 | 67 | 90 | 0.9 | 6.1 | 0.00 | 0.00 | 0.00 | 54 | 1010.0 |
| 20260505092807 | 67 | 135 | 1.7 | 6.1 | 0.00 | 0.00 | 0.00 | 54 | 1010.0 |
| 20260505092305 | 67 | 203 | 0.9 | 4.3 | 0.00 | 0.00 | 0.00 | 55 | 1010.0 |
| 20260505092035 | 67 | 180 | 0.0 | 3.5 | 0.00 | 0.00 | 0.00 | 56 | 1010.0 |
| 20260505091305 | 67 | 225 | 0.0 | 1.7 | 0.00 | 0.00 | 0.00 | 59 | 1010.0 |
| 20260505090804 | 67 | 0 | 0.0 | 2.6 | 0.00 | 0.00 | 0.00 | 58 | 1010.0 |
| 20260505090535 | 68 | 180 | 0.0 | 4.3 | 0.00 | 0.00 | 0.00 | 58 | 1010.0 |
| 20260505085805 | 68 | 203 | 0.9 | 5.2 | 0.00 | 0.00 | 0.00 | 55 | 1010.5 |
| 20260505085306 | 68 | 180 | 0.9 | 7.0 | 0.00 | 0.00 | 0.00 | 55 | 1010.5 |
| 20260505084806 | 68 | 158 | 1.7 | 10.4 | 0.00 | 0.00 | 0.00 | 54 | 1010.5 |
| 20260505084306 | 68 | 158 | 1.7 | 10.4 | 0.00 | 0.00 | 0.00 | 53 | 1010.5 |
| 20260505083806 | 68 | 158 | 1.7 | 9.6 | 0.00 | 0.00 | 0.00 | 53 | 1010.5 |
| 20260505083308 | 69 | 158 | 2.6 | 13.0 | 0.00 | 0.00 | 0.00 | 51 | 1010.5 |
| 20260505083304 | 69 | 135 | 1.7 | 10.4 | 0.00 | 0.00 | 0.00 | 51 | 1010.5 |
| 20260505082304 | 69 | 180 | 1.7 | 8.7 | 0.00 | 0.00 | 0.00 | 50 | 1010.8 |
| 20260505081804 | 69 | 203 | 1.7 | 8.7 | 0.00 | 0.00 | 0.00 | 50 | 1010.8 |
| 20260505081304 | 69 | 158 | 1.7 | 9.6 | 0.00 | 0.00 | 0.00 | 50 | 1010.8 |
| 20260505080804 | 70 | 180 | 1.7 | 9.6 | 0.00 | 0.00 | 0.00 | 49 | 1010.8 |
| 20260505080305 | 70 | 158 | 1.7 | 10.4 | 0.00 | 0.00 | 0.00 | 48 | 1010.8 |
| 20260505075804 | 70 | 203 | 2.6 | 10.4 | 0.00 | 0.00 | 0.00 | 45 | 1010.8 |
| 20260505075304 | 70 | 135 | 1.7 | 9.6 | 0.00 | 0.00 | 0.00 | 45 | 1010.8 |
| 20260505074802 | 70 | 180 | 1.7 | 10.4 | 0.00 | 0.00 | 0.00 | 41 | 1010.8 |
| 20260505074302 | 70 | 180 | 1.7 | 10.4 | 0.00 | 0.00 | 0.00 | 40 | 1010.5 |
| 20260505073802 | 71 | 158 | 2.6 | 10.4 | 0.00 | 0.00 | 0.00 | 40 | 1010.8 |
| 20260505073303 | 71 | 203 | 1.7 | 8.7 | 0.00 | 0.00 | 0.00 | 40 | 1010.5 |
| 20260505072803 | 71 | 180 | 1.7 | 7.0 | 0.00 | 0.00 | 0.00 | 40 | 1010.8 |
| 20260505072308 | 71 | 158 | 1.7 | 7.0 | 0.00 | 0.00 | 0.00 | 40 | 1010.5 |
| 20260505072305 | 71 | 225 | 1.7 | 7.0 | 0.00 | 0.00 | 0.00 | 40 | 1010.5 |
| 20260505071304 | 71 | 158 | 1.7 | 8.7 | 0.00 | 0.00 | 0.00 | 40 | 1010.5 |
| 20260505070802 | 71 | 203 | 1.7 | 8.7 | 0.00 | 0.00 | 0.00 | 40 | 1010.8 |
| 20260505070532 | 71 | 135 | 1.7 | 7.0 | 0.00 | 0.00 | 0.00 | 40 | 1010.8 |
| 20260505065801 | 71 | 203 | 1.7 | 9.6 | 0.00 | 0.00 | 0.00 | 40 | 1010.8 |
| 20260505065534 | 71 | 158 | 1.7 | 9.6 | 0.00 | 0.00 | 0.00 | 39 | 1010.5 |
| 20260505065033 | 71 | 248 | 1.7 | 10.4 | 0.00 | 0.00 | 0.00 | 37 | 1010.8 |
| 20260505064303 | 71 | 158 | 2.6 | 10.4 | 0.00 | 0.00 | 0.00 | 37 | 1010.5 |
| 20260505063802 | 71 | 180 | 2.6 | 9.6 | 0.00 | 0.00 | 0.00 | 35 | 1010.5 |
| 20260505063303 | 72 | 203 | 1.7 | 9.6 | 0.00 | 0.00 | 0.00 | 35 | 1010.0 |
| 20260505062803 | 72 | 180 | 1.7 | 8.7 | 0.00 | 0.00 | 0.00 | 34 | 1010.0 |
| 20260505062304 | 72 | 180 | 1.7 | 9.6 | 0.00 | 0.00 | 0.00 | 34 | 1010.0 |
| 20260505061801 | 72 | 180 | 1.7 | 9.6 | 0.00 | 0.00 | 0.00 | 32 | 1010.0 |
| 20260505061301 | 72 | 135 | 1.7 | 11.3 | 0.00 | 0.00 | 0.00 | 31 | 1010.0 |
| 20260505060802 | 72 | 203 | 1.7 | 11.3 | 0.00 | 0.00 | 0.00 | 30 | 1010.0 |
| 20260505060302 | 72 | 180 | 2.6 | 9.6 | 0.00 | 0.00 | 0.00 | 30 | 1010.0 |
| 20260505055802 | 73 | 158 | 2.6 | 10.4 | 0.00 | 0.00 | 0.00 | 29 | 1010.0 |
| 20260505055303 | 73 | 180 | 1.7 | 10.4 | 0.00 | 0.00 | 0.00 | 27 | 1010.0 |
| 20260505055034 | 73 | 158 | 1.7 | 8.7 | 0.00 | 0.00 | 0.00 | 27 | 1010.0 |
| 20260505054302 | 73 | 225 | 1.7 | 8.7 | 0.00 | 0.00 | 0.00 | 27 | 1010.0 |
| 20260505053801 | 73 | 203 | 1.7 | 7.0 | 0.00 | 0.00 | 0.00 | 29 | 1010.5 |
| 20260505053301 | 73 | 135 | 1.7 | 6.1 | 0.00 | 0.00 | 0.00 | 29 | 1010.5 |
| 20260505052800 | 73 | 158 | 0.9 | 7.8 | 0.00 | 0.00 | 0.00 | 29 | 1010.5 |
| 20260505052301 | 73 | 158 | 1.7 | 7.8 | 0.00 | 0.00 | 0.00 | 30 | 1010.8 |
| 20260505051802 | 73 | 180 | 1.7 | 7.8 | 0.00 | 0.00 | 0.00 | 30 | 1010.8 |
| 20260505051302 | 74 | 203 | 1.7 | 7.0 | 0.00 | 0.00 | 0.00 | 30 | 1010.8 |
| 20260505050802 | 74 | 203 | 1.7 | 7.8 | 0.00 | 0.00 | 0.00 | 29 | 1010.8 |
| 20260505050302 | 74 | 180 | 1.7 | 7.8 | 0.00 | 0.00 | 0.00 | 29 | 1010.5 |
| 20260505041519 | 76 | 90 | 0.9 | 3.5 | 0.00 | 0.00 | 0.00 | 39 | 1010.0 |
| 20260505041016 | 76 | 203 | 0.0 | 3.5 | 0.00 | 0.00 | 0.00 | 39 | 1010.0 |
| 20260505040512 | 76 | 113 | 0.0 | 3.5 | 0.00 | 0.00 | 0.00 | 37 | 1010.0 |
| 20260505035740 | 76 | 225 | 0.9 | 3.5 | 0.00 | 0.00 | 0.00 | 37 | 1010.0 |
| 20260505035240 | 76 | 225 | 0.9 | 4.3 | 0.00 | 0.00 | 0.00 | 37 | 1010.0 |
| 20260505034742 | 76 | 248 | 0.9 | 4.3 | 0.00 | 0.00 | 0.00 | 37 | 1010.0 |
| 20260505034513 | 76 | 180 | 0.9 | 6.1 | 0.00 | 0.00 | 0.00 | 37 | 1009.7 |
| 20260505033742 | 76 | 180 | 0.9 | 6.1 | 0.00 | 0.00 | 0.00 | 37 | 1009.7 |
| 20260505033241 | 76 | 248 | 0.9 | 5.2 | 0.00 | 0.00 | 0.00 | 37 | 1009.7 |
| 20260505032741 | 76 | 203 | 0.0 | 3.5 | 0.00 | 0.00 | 0.00 | 37 | 1009.7 |
| 20260505032240 | 76 | 225 | 0.9 | 2.6 | 0.00 | 0.00 | 0.00 | 37 | 1009.3 |
| 20260505031740 | 76 | 180 | 0.9 | 2.6 | 0.00 | 0.00 | 0.00 | 35 | 1009.3 |
| 20260505031511 | 76 | 248 | 0.0 | 2.6 | 0.00 | 0.00 | 0.00 | 35 | 1009.0 |
| 20260505030741 | 76 | 203 | 0.0 | 2.6 | 0.00 | 0.00 | 0.00 | 35 | 1009.3 |
| 20260505030240 | 76 | 158 | 0.0 | 4.3 | 0.00 | 0.00 | 0.00 | 35 | 1009.0 |
| 20260505025722 | 76 | 270 | 0.9 | 4.3 | 0.00 | 0.00 | 0.00 | 35 | 1009.0 |
| 20260505025222 | 76 | 248 | 0.9 | 5.2 | 0.00 | 0.00 | 0.00 | 35 | 1009.0 |
| 20260505024722 | 77 | 225 | 0.9 | 5.2 | 0.00 | 0.00 | 0.00 | 35 | 1009.3 |
| 20260505024222 | 77 | 180 | 1.7 | 5.2 | 0.00 | 0.00 | 0.00 | 35 | 1009.0 |
| 20260505023722 | 77 | 203 | 0.9 | 5.2 | 0.00 | 0.00 | 0.00 | 35 | 1009.0 |
| 20260505023221 | 77 | 180 | 0.9 | 5.2 | 0.00 | 0.00 | 0.00 | 34 | 1009.3 |
| 20260505022721 | 77 | 225 | 0.9 | 5.2 | 0.00 | 0.00 | 0.00 | 34 | 1009.3 |
| 20260505022222 | 77 | 203 | 0.9 | 5.2 | 0.00 | 0.00 | 0.00 | 34 | 1009.0 |
| 20260505021721 | 77 | 225 | 0.9 | 3.5 | 0.00 | 0.00 | 0.00 | 32 | 1009.0 |
| 20260505021223 | 78 | 203 | 0.9 | 3.5 | 0.00 | 0.00 | 0.00 | 34 | 1009.0 |
| 20260505020722 | 78 | 180 | 0.9 | 2.6 | 0.00 | 0.00 | 0.00 | 34 | 1009.3 |
| 20260505020223 | 78 | 180 | 0.0 | 2.6 | 0.00 | 0.00 | 0.00 | 32 | 1009.0 |
| 20260505015722 | 78 | 180 | 0.0 | 2.6 | 0.00 | 0.00 | 0.00 | 32 | 1009.0 |
| 20260505015204 | 78 | 270 | 0.0 | 3.5 | 0.00 | 0.00 | 0.00 | 32 | 1009.0 |
| 20260505014934 | 78 | 225 | 0.9 | 3.5 | 0.00 | 0.00 | 0.00 | 31 | 1009.0 |
| 20260505014433 | 78 | 180 | 0.0 | 3.5 | 0.00 | 0.00 | 0.00 | 31 | 1009.0 |
| 20260505013702 | 78 | 203 | 0.9 | 3.5 | 0.00 | 0.00 | 0.00 | 31 | 1008.7 |
| 20260505013202 | 78 | 225 | 0.9 | 3.5 | 0.00 | 0.00 | 0.00 | 32 | 1008.7 |
| 20260505012645 | 78 | 203 | 0.0 | 2.6 | 0.00 | 0.00 | 0.00 | 31 | 1008.7 |
| 20260505012146 | 79 | 180 | 0.0 | 1.7 | 0.00 | 0.00 | 0.00 | 34 | 1009.0 |
| 20260505011645 | 79 | 225 | 0.0 | 1.7 | 0.00 | 0.00 | 0.00 | 32 | 1009.0 |
| 20260505011416 | 79 | 203 | 0.0 | 1.7 | 0.00 | 0.00 | 0.00 | 34 | 1009.0 |
| 20260505010645 | 79 | 68 | 0.0 | 3.5 | 0.00 | 0.00 | 0.00 | 35 | 1008.7 |
| 20260505010144 | 79 | 248 | 0.9 | 3.5 | 0.00 | 0.00 | 0.00 | 35 | 1009.0 |
| 20260505005643 | 79 | 248 | 0.9 | 3.5 | 0.00 | 0.00 | 0.00 | 34 | 1008.7 |
| 20260505005144 | 79 | 270 | 0.9 | 3.5 | 0.00 | 0.00 | 0.00 | 34 | 1009.0 |
| 20260505004644 | 79 | 270 | 0.9 | 3.5 | 0.00 | 0.00 | 0.00 | 34 | 1009.0 |
| 20260505004145 | 79 | 158 | 0.0 | 3.5 | 0.00 | 0.00 | 0.00 | 32 | 1008.7 |
| 20260505003645 | 79 | 180 | 0.9 | 3.5 | 0.00 | 0.00 | 0.00 | 34 | 1009.0 |
| 20260505003145 | 79 | 203 | 0.0 | 2.6 | 0.00 | 0.00 | 0.00 | 32 | 1008.7 |
| 20260505002645 | 79 | 270 | 0.0 | 3.5 | 0.00 | 0.00 | 0.00 | 34 | 1009.0 |
| 20260505002145 | 79 | 248 | 0.9 | 3.5 | 0.00 | 0.00 | 0.00 | 34 | 1009.0 |
| 20260505001644 | 80 | 203 | 0.0 | 3.5 | 0.00 | 0.00 | 0.00 | 34 | 1009.0 |
| 20260505001415 | 80 | 293 | 0.0 | 3.5 | 0.00 | 0.00 | 0.00 | 34 | 1009.0 |
| 20260505000643 | 80 | 338 | 0.9 | 3.5 | 0.00 | 0.00 | 0.00 | 34 | 1009.0 |
| 20260505000415 | 80 | 180 | 0.9 | 3.5 | 0.00 | 0.00 | 0.00 | 34 | 1009.3 |
| 20260504235645 | 80 | 90 | 0.9 | 2.6 | 0.00 | 0.00 | 0.00 | 34 | 1009.3 |
| 20260504235145 | 80 | 270 | 0.0 | 2.6 | 0.00 | 0.00 | 0.00 | 35 | 1009.3 |
| 20260504234644 | 80 | 68 | 0.0 | 3.5 | 0.00 | 0.00 | 0.00 | 35 | 1009.3 |
| 20260504234415 | 80 | 23 | 0.9 | 3.5 | 0.00 | 0.00 | 0.00 | 35 | 1009.7 |
| 20260504233644 | 80 | 270 | 0.9 | 3.5 | 0.00 | 0.00 | 0.00 | 34 | 1009.3 |
| 20260504233144 | 80 | 270 | 0.0 | 3.5 | 0.00 | 0.00 | 0.00 | 34 | 1009.3 |
| 20260504232915 | 80 | 270 | 0.0 | 4.3 | 0.00 | 0.00 | 0.00 | 34 | 1009.3 |
| 20260504232143 | 80 | 0 | 0.9 | 4.3 | 0.00 | 0.00 | 0.00 | 35 | 1009.3 |
| 20260504231643 | 81 | 338 | 0.9 | 4.3 | 0.00 | 0.00 | 0.00 | 35 | 1009.3 |
| 20260504231415 | 81 | 23 | 0.9 | 4.3 | 0.00 | 0.00 | 0.00 | 35 | 1009.3 |
| 20260504230645 | 80 | 68 | 0.9 | 4.3 | 0.00 | 0.00 | 0.00 | 35 | 1009.3 |
| 20260504230145 | 80 | 338 | 0.9 | 4.3 | 0.00 | 0.00 | 0.00 | 35 | 1009.0 |
| 20260504225644 | 80 | 270 | 0.9 | 4.3 | 0.00 | 0.00 | 0.00 | 35 | 1009.7 |
| 20260504225144 | 80 | 68 | 0.0 | 4.3 | 0.00 | 0.00 | 0.00 | 35 | 1009.7 |
| 20260504224643 | 80 | 293 | 0.9 | 5.2 | 0.00 | 0.00 | 0.00 | 35 | 1009.3 |
| 20260504224143 | 80 | 338 | 0.9 | 5.2 | 0.00 | 0.00 | 0.00 | 35 | 1009.3 |
| 20260504223643 | 80 | 45 | 0.9 | 5.2 | 0.00 | 0.00 | 0.00 | 35 | 1009.7 |
| 20260504223143 | 80 | 270 | 0.9 | 5.2 | 0.00 | 0.00 | 0.00 | 35 | 1009.7 |
| 20260504222644 | 80 | 225 | 0.9 | 7.0 | 0.00 | 0.00 | 0.00 | 35 | 1009.3 |
| 20260504222415 | 80 | 270 | 0.9 | 7.0 | 0.00 | 0.00 | 0.00 | 35 | 1009.7 |
| 20260504221644 | 80 | 90 | 0.9 | 6.1 | 0.00 | 0.00 | 0.00 | 35 | 1009.7 |
| 20260504221144 | 80 | 315 | 0.9 | 6.1 | 0.00 | 0.00 | 0.00 | 35 | 1009.7 |
| 20260504220644 | 79 | 45 | 0.9 | 5.2 | 0.00 | 0.00 | 0.00 | 35 | 1009.7 |
| 20260504220415 | 79 | 0 | 0.9 | 6.1 | 0.00 | 0.00 | 0.00 | 35 | 1009.7 |
| 20260504215643 | 79 | 180 | 0.9 | 6.1 | 0.00 | 0.00 | 0.00 | 35 | 1010.0 |
| 20260504215143 | 79 | 270 | 0.9 | 3.5 | 0.00 | 0.00 | 0.00 | 35 | 1009.7 |
| 20260504214643 | 79 | 68 | 0.0 | 3.5 | 0.00 | 0.00 | 0.00 | 35 | 1009.7 |
| 20260504214143 | 79 | 23 | 0.9 | 3.5 | 0.00 | 0.00 | 0.00 | 35 | 1010.0 |
| 20260504213644 | 79 | 0 | 0.0 | 4.3 | 0.00 | 0.00 | 0.00 | 35 | 1010.5 |
| 20260504213145 | 79 | 23 | 0.9 | 6.1 | 0.00 | 0.00 | 0.00 | 35 | 1010.5 |
| 20260504212915 | 79 | 0 | 0.9 | 6.1 | 0.00 | 0.00 | 0.00 | 35 | 1010.5 |
| 20260504212143 | 79 | 248 | 1.7 | 6.1 | 0.00 | 0.00 | 0.00 | 35 | 1010.5 |
| 20260504211643 | 79 | 293 | 1.7 | 6.1 | 0.00 | 0.00 | 0.00 | 35 | 1010.8 |
| 20260504211148 | 79 | 180 | 0.9 | 7.8 | 0.00 | 0.00 | 0.00 | 32 | 1010.5 |
| 20260504211144 | 79 | 158 | 1.7 | 6.1 | 0.00 | 0.00 | 0.00 | 34 | 1010.8 |
| 20260504210142 | 79 | 180 | 1.7 | 7.8 | 0.00 | 0.00 | 0.00 | 32 | 1010.8 |
| 20260504205642 | 79 | 203 | 1.7 | 7.0 | 0.00 | 0.00 | 0.00 | 31 | 1010.5 |
| 20260504205143 | 80 | 270 | 1.7 | 7.0 | 0.00 | 0.00 | 0.00 | 31 | 1010.8 |
| 20260504204643 | 80 | 180 | 1.7 | 7.0 | 0.00 | 0.00 | 0.00 | 31 | 1010.8 |
| 20260504204143 | 80 | 270 | 1.7 | 7.0 | 0.00 | 0.00 | 0.00 | 32 | 1010.8 |
| 20260504203914 | 79 | 180 | 1.7 | 7.0 | 0.00 | 0.00 | 0.00 | 31 | 1010.8 |
| 20260504203143 | 79 | 270 | 0.9 | 7.8 | 0.00 | 0.00 | 0.00 | 32 | 1010.8 |
| 20260504202645 | 79 | 203 | 1.7 | 6.1 | 0.00 | 0.00 | 0.00 | 34 | 1010.5 |
| 20260504202641 | 79 | 203 | 1.7 | 7.8 | 0.00 | 0.00 | 0.00 | 32 | 1010.5 |
| 20260504201912 | 79 | 158 | 1.7 | 6.1 | 0.00 | 0.00 | 0.00 | 34 | 1010.8 |
| 20260504201142 | 79 | 158 | 1.7 | 6.1 | 0.00 | 0.00 | 0.00 | 34 | 1010.8 |
| 20260504200642 | 79 | 203 | 1.7 | 8.7 | 0.00 | 0.00 | 0.00 | 34 | 1010.8 |
| 20260504200142 | 79 | 225 | 1.7 | 8.7 | 0.00 | 0.00 | 0.00 | 34 | 1010.8 |
| 20260504195914 | 79 | 180 | 1.7 | 6.1 | 0.00 | 0.00 | 0.00 | 32 | 1010.8 |
| 20260504195859 | 79 | 203 | 0.9 | 6.1 | 0.00 | 0.00 | 0.00 | 34 | 1010.8 |
| 20260504194640 | 79 | 158 | 1.7 | 7.0 | 0.00 | 0.00 | 0.00 | 32 | 1010.8 |
| 20260504194141 | 79 | 203 | 1.7 | 7.8 | 0.00 | 0.00 | 0.00 | 32 | 1010.8 |
| 20260504193641 | 79 | 180 | 0.9 | 7.8 | 0.00 | 0.00 | 0.00 | 32 | 1010.8 |
| 20260504193140 | 79 | 158 | 0.9 | 6.1 | 0.00 | 0.00 | 0.00 | 32 | 1011.1 |
| 20260504192642 | 79 | 203 | 1.7 | 7.8 | 0.00 | 0.00 | 0.00 | 31 | 1010.8 |
| 20260504192141 | 79 | 180 | 0.9 | 7.0 | 0.00 | 0.00 | 0.00 | 34 | 1011.1 |
| 20260504191642 | 79 | 203 | 1.7 | 7.0 | 0.00 | 0.00 | 0.00 | 32 | 1011.1 |
| 20260504191142 | 79 | 203 | 1.7 | 6.1 | 0.00 | 0.00 | 0.00 | 32 | 1010.8 |
| 20260504190641 | 78 | 270 | 0.9 | 7.0 | 0.00 | 0.00 | 0.00 | 34 | 1010.5 |
| 20260504190141 | 78 | 248 | 0.9 | 7.0 | 0.00 | 0.00 | 0.00 | 32 | 1010.8 |
| 20260504185640 | 78 | 270 | 1.7 | 6.1 | 0.00 | 0.00 | 0.00 | 34 | 1010.8 |
| 20260504185140 | 78 | 203 | 0.9 | 6.1 | 0.00 | 0.00 | 0.00 | 32 | 1010.8 |
| 20260504184640 | 78 | 203 | 0.9 | 6.1 | 0.00 | 0.00 | 0.00 | 32 | 1010.5 |
| 20260504184142 | 78 | 180 | 1.7 | 7.0 | 0.00 | 0.00 | 0.00 | 32 | 1010.8 |
| 20260504183641 | 78 | 90 | 0.9 | 7.0 | 0.00 | 0.00 | 0.00 | 34 | 1010.8 |
| 20260504183413 | 77 | 180 | 1.7 | 6.1 | 0.00 | 0.00 | 0.00 | 32 | 1011.1 |
| 20260504182641 | 77 | 225 | 0.9 | 6.1 | 0.00 | 0.00 | 0.00 | 32 | 1011.1 |
| 20260504182141 | 77 | 248 | 1.7 | 6.1 | 0.00 | 0.00 | 0.00 | 32 | 1011.1 |
| 20260504181640 | 77 | 135 | 1.7 | 7.8 | 0.00 | 0.00 | 0.00 | 32 | 1011.5 |
| 20260504181140 | 77 | 225 | 1.7 | 7.8 | 0.00 | 0.00 | 0.00 | 32 | 1011.5 |
| 20260504180640 | 77 | 270 | 1.7 | 6.1 | 0.00 | 0.00 | 0.00 | 32 | 1011.1 |
| 20260504180139 | 77 | 270 | 0.9 | 5.2 | 0.00 | 0.00 | 0.00 | 32 | 1011.1 |
| 20260504175641 | 77 | 270 | 1.7 | 5.2 | 0.00 | 0.00 | 0.00 | 32 | 1010.5 |
| 20260504175412 | 77 | 180 | 0.9 | 5.2 | 0.00 | 0.00 | 0.00 | 30 | 1010.8 |
| 20260504174641 | 77 | 203 | 0.9 | 6.1 | 0.00 | 0.00 | 0.00 | 31 | 1010.8 |
| 20260504174140 | 77 | 203 | 1.7 | 6.1 | 0.00 | 0.00 | 0.00 | 30 | 1010.8 |
| 20260504173641 | 77 | 203 | 1.7 | 6.1 | 0.00 | 0.00 | 0.00 | 31 | 1010.8 |